sensor_id;sensor_type;location;lat;lon;timestamp;temperature;humidity
4687;DHT22;2357;47.316;-1.348;2022-11-14T00:01:57;12.70;99.90
4687;DHT22;2357;47.316;-1.348;2022-11-14T00:04:23;12.60;99.90
4687;DHT22;2357;47.316;-1.348;2022-11-14T00:06:49;12.70;99.90
4687;DHT22;2357;47.316;-1.348;2022-11-14T00:09:14;12.60;99.90
4687;DHT22;2357;47.316;-1.348;2022-11-14T00:11:40;12.70;99.90
4687;DHT22;2357;47.316;-1.348;2022-11-14T00:14:06;12.80;99.90
4687;DHT22;2357;47.316;-1.348;2022-11-14T00:16:31;12.80;99.90
4687;DHT22;2357;47.316;-1.348;2022-11-14T00:18:57;12.80;99.90
4687;DHT22;2357;47.316;-1.348;2022-11-14T00:21:22;12.90;99.90
4687;DHT22;2357;47.316;-1.348;2022-11-14T00:23:48;12.80;99.90
4687;DHT22;2357;47.316;-1.348;2022-11-14T00:26:14;12.80;99.90
4687;DHT22;2357;47.316;-1.348;2022-11-14T00:28:39;12.90;99.90
4687;DHT22;2357;47.316;-1.348;2022-11-14T00:31:05;12.70;99.90
4687;DHT22;2357;47.316;-1.348;2022-11-14T00:33:30;12.70;99.90
4687;DHT22;2357;47.316;-1.348;2022-11-14T00:35:56;12.60;99.90
4687;DHT22;2357;47.316;-1.348;2022-11-14T00:38:22;12.60;99.90
4687;DHT22;2357;47.316;-1.348;2022-11-14T00:40:48;12.60;99.90
4687;DHT22;2357;47.316;-1.348;2022-11-14T00:43:14;12.60;99.90
4687;DHT22;2357;47.316;-1.348;2022-11-14T00:45:45;12.50;99.90
4687;DHT22;2357;47.316;-1.348;2022-11-14T00:48:11;12.50;99.90
4687;DHT22;2357;47.316;-1.348;2022-11-14T00:50:36;12.60;99.90
4687;DHT22;2357;47.316;-1.348;2022-11-14T00:53:03;12.60;99.90
4687;DHT22;2357;47.316;-1.348;2022-11-14T00:55:28;12.60;99.90
4687;DHT22;2357;47.316;-1.348;2022-11-14T00:57:54;12.50;99.90
4687;DHT22;2357;47.316;-1.348;2022-11-14T01:00:20;12.50;99.90
4687;DHT22;2357;47.316;-1.348;2022-11-14T01:02:45;12.60;99.90
4687;DHT22;2357;47.316;-1.348;2022-11-14T01:05:11;12.50;99.90
4687;DHT22;2357;47.316;-1.348;2022-11-14T01:07:37;12.50;99.90
4687;DHT22;2357;47.316;-1.348;2022-11-14T01:10:03;12.50;99.90
4687;DHT22;2357;47.316;-1.348;2022-11-14T01:12:28;12.40;99.90
4687;DHT22;2357;47.316;-1.348;2022-11-14T01:14:54;12.30;99.90
4687;DHT22;2357;47.316;-1.348;2022-11-14T01:17:20;12.30;99.90
4687;DHT22;2357;47.316;-1.348;2022-11-14T01:19:45;12.40;99.90
4687;DHT22;2357;47.316;-1.348;2022-11-14T01:22:11;12.40;99.90
4687;DHT22;2357;47.316;-1.348;2022-11-14T01:24:36;12.40;99.90
4687;DHT22;2357;47.316;-1.348;2022-11-14T01:27:02;12.40;99.90
4687;DHT22;2357;47.316;-1.348;2022-11-14T01:29:28;12.40;99.90
4687;DHT22;2357;47.316;-1.348;2022-11-14T01:31:54;12.50;99.90
4687;DHT22;2357;47.316;-1.348;2022-11-14T01:34:21;12.50;99.90
4687;DHT22;2357;47.316;-1.348;2022-11-14T01:36:46;12.60;99.90
4687;DHT22;2357;47.316;-1.348;2022-11-14T01:39:12;12.60;99.90
4687;DHT22;2357;47.316;-1.348;2022-11-14T01:41:38;12.60;99.90
4687;DHT22;2357;47.316;-1.348;2022-11-14T01:44:14;12.50;99.90
4687;DHT22;2357;47.316;-1.348;2022-11-14T01:46:41;12.50;99.90
4687;DHT22;2357;47.316;-1.348;2022-11-14T01:49:20;12.30;99.90
4687;DHT22;2357;47.316;-1.348;2022-11-14T01:51:56;12.20;99.90
4687;DHT22;2357;47.316;-1.348;2022-11-14T01:54:29;12.10;99.90
4687;DHT22;2357;47.316;-1.348;2022-11-14T01:57:02;12.10;99.90
4687;DHT22;2357;47.316;-1.348;2022-11-14T01:59:39;12.10;99.90
4687;DHT22;2357;47.316;-1.348;2022-11-14T02:02:13;12.10;99.90
4687;DHT22;2357;47.316;-1.348;2022-11-14T02:04:43;12.20;99.90
4687;DHT22;2357;47.316;-1.348;2022-11-14T02:07:10;12.20;99.90
4687;DHT22;2357;47.316;-1.348;2022-11-14T02:09:38;12.30;99.90
4687;DHT22;2357;47.316;-1.348;2022-11-14T02:12:07;12.40;99.90
4687;DHT22;2357;47.316;-1.348;2022-11-14T02:14:35;12.40;99.90
4687;DHT22;2357;47.316;-1.348;2022-11-14T02:17:02;12.40;99.90
4687;DHT22;2357;47.316;-1.348;2022-11-14T02:19:52;12.30;99.90
4687;DHT22;2357;47.316;-1.348;2022-11-14T02:22:18;12.40;99.90
4687;DHT22;2357;47.316;-1.348;2022-11-14T02:24:44;12.40;99.90
4687;DHT22;2357;47.316;-1.348;2022-11-14T02:27:10;12.40;99.90
4687;DHT22;2357;47.316;-1.348;2022-11-14T02:29:37;12.40;99.90
4687;DHT22;2357;47.316;-1.348;2022-11-14T02:32:03;12.40;99.90
4687;DHT22;2357;47.316;-1.348;2022-11-14T02:34:29;12.40;99.90
4687;DHT22;2357;47.316;-1.348;2022-11-14T02:36:55;12.50;99.90
4687;DHT22;2357;47.316;-1.348;2022-11-14T02:39:21;12.40;99.90
4687;DHT22;2357;47.316;-1.348;2022-11-14T02:41:48;12.40;99.90
4687;DHT22;2357;47.316;-1.348;2022-11-14T02:44:13;12.50;99.90
4687;DHT22;2357;47.316;-1.348;2022-11-14T02:46:39;12.30;99.90
4687;DHT22;2357;47.316;-1.348;2022-11-14T02:49:05;12.40;99.90
4687;DHT22;2357;47.316;-1.348;2022-11-14T02:51:30;12.40;99.90
4687;DHT22;2357;47.316;-1.348;2022-11-14T02:53:56;12.40;99.90
4687;DHT22;2357;47.316;-1.348;2022-11-14T02:56:21;12.40;99.90
4687;DHT22;2357;47.316;-1.348;2022-11-14T02:58:47;12.40;99.90
4687;DHT22;2357;47.316;-1.348;2022-11-14T03:01:13;12.40;99.90
4687;DHT22;2357;47.316;-1.348;2022-11-14T03:03:38;12.40;99.90
4687;DHT22;2357;47.316;-1.348;2022-11-14T03:06:04;12.40;99.90
4687;DHT22;2357;47.316;-1.348;2022-11-14T03:08:30;12.40;99.90
4687;DHT22;2357;47.316;-1.348;2022-11-14T03:10:55;12.40;99.90
4687;DHT22;2357;47.316;-1.348;2022-11-14T03:13:28;12.40;99.90
4687;DHT22;2357;47.316;-1.348;2022-11-14T03:15:54;12.40;99.90
4687;DHT22;2357;47.316;-1.348;2022-11-14T03:18:20;12.40;99.90
4687;DHT22;2357;47.316;-1.348;2022-11-14T03:20:46;12.50;99.90
4687;DHT22;2357;47.316;-1.348;2022-11-14T03:23:12;12.40;99.90
4687;DHT22;2357;47.316;-1.348;2022-11-14T03:25:37;12.50;99.90
4687;DHT22;2357;47.316;-1.348;2022-11-14T03:28:03;12.50;99.90
4687;DHT22;2357;47.316;-1.348;2022-11-14T03:30:29;12.50;99.90
4687;DHT22;2357;47.316;-1.348;2022-11-14T03:32:56;12.50;99.90
4687;DHT22;2357;47.316;-1.348;2022-11-14T03:35:22;12.50;99.90
4687;DHT22;2357;47.316;-1.348;2022-11-14T03:37:48;12.50;99.90
4687;DHT22;2357;47.316;-1.348;2022-11-14T03:40:13;12.50;99.90
4687;DHT22;2357;47.316;-1.348;2022-11-14T03:42:39;12.50;99.90
4687;DHT22;2357;47.316;-1.348;2022-11-14T03:45:05;12.40;99.90
4687;DHT22;2357;47.316;-1.348;2022-11-14T03:47:31;12.50;99.90
4687;DHT22;2357;47.316;-1.348;2022-11-14T03:49:56;12.50;99.90
4687;DHT22;2357;47.316;-1.348;2022-11-14T03:52:22;12.40;99.90
4687;DHT22;2357;47.316;-1.348;2022-11-14T03:54:47;12.40;99.90
4687;DHT22;2357;47.316;-1.348;2022-11-14T03:57:14;12.40;99.90
4687;DHT22;2357;47.316;-1.348;2022-11-14T03:59:40;12.50;99.90
4687;DHT22;2357;47.316;-1.348;2022-11-14T04:02:05;12.50;99.90
4687;DHT22;2357;47.316;-1.348;2022-11-14T04:04:31;12.50;99.90
4687;DHT22;2357;47.316;-1.348;2022-11-14T04:06:56;12.50;99.90
4687;DHT22;2357;47.316;-1.348;2022-11-14T04:09:22;12.50;99.90
4687;DHT22;2357;47.316;-1.348;2022-11-14T04:11:48;12.50;99.90
4687;DHT22;2357;47.316;-1.348;2022-11-14T04:14:13;12.50;99.90
4687;DHT22;2357;47.316;-1.348;2022-11-14T04:16:39;12.50;99.90
4687;DHT22;2357;47.316;-1.348;2022-11-14T04:19:04;12.50;99.90
4687;DHT22;2357;47.316;-1.348;2022-11-14T04:21:30;12.50;99.90
4687;DHT22;2357;47.316;-1.348;2022-11-14T04:23:56;12.50;99.90
4687;DHT22;2357;47.316;-1.348;2022-11-14T04:26:21;12.40;99.90
4687;DHT22;2357;47.316;-1.348;2022-11-14T04:28:47;12.40;99.90
4687;DHT22;2357;47.316;-1.348;2022-11-14T04:31:12;12.40;99.90
4687;DHT22;2357;47.316;-1.348;2022-11-14T04:33:38;12.40;99.90
4687;DHT22;2357;47.316;-1.348;2022-11-14T04:36:04;12.40;99.90
4687;DHT22;2357;47.316;-1.348;2022-11-14T04:38:29;12.40;99.90
4687;DHT22;2357;47.316;-1.348;2022-11-14T04:40:55;12.40;99.90
4687;DHT22;2357;47.316;-1.348;2022-11-14T04:43:21;12.50;99.90
4687;DHT22;2357;47.316;-1.348;2022-11-14T04:45:47;12.50;99.90
4687;DHT22;2357;47.316;-1.348;2022-11-14T04:48:12;12.50;99.90
4687;DHT22;2357;47.316;-1.348;2022-11-14T04:50:38;12.50;99.90
4687;DHT22;2357;47.316;-1.348;2022-11-14T04:53:04;12.60;99.90
4687;DHT22;2357;47.316;-1.348;2022-11-14T04:55:30;12.60;99.90
4687;DHT22;2357;47.316;-1.348;2022-11-14T04:57:57;12.60;99.90
4687;DHT22;2357;47.316;-1.348;2022-11-14T05:00:23;12.60;99.90
4687;DHT22;2357;47.316;-1.348;2022-11-14T05:02:49;12.60;99.90
4687;DHT22;2357;47.316;-1.348;2022-11-14T05:05:15;12.60;99.90
4687;DHT22;2357;47.316;-1.348;2022-11-14T05:07:41;12.60;99.90
4687;DHT22;2357;47.316;-1.348;2022-11-14T05:10:08;12.60;99.90
4687;DHT22;2357;47.316;-1.348;2022-11-14T05:12:33;12.60;99.90
4687;DHT22;2357;47.316;-1.348;2022-11-14T05:14:59;12.60;99.90
4687;DHT22;2357;47.316;-1.348;2022-11-14T05:17:25;12.60;99.90
4687;DHT22;2357;47.316;-1.348;2022-11-14T05:19:51;12.60;99.90
4687;DHT22;2357;47.316;-1.348;2022-11-14T05:22:16;12.60;99.90
4687;DHT22;2357;47.316;-1.348;2022-11-14T05:24:42;12.60;99.90
4687;DHT22;2357;47.316;-1.348;2022-11-14T05:27:08;12.60;99.90
4687;DHT22;2357;47.316;-1.348;2022-11-14T05:29:33;12.60;99.90
4687;DHT22;2357;47.316;-1.348;2022-11-14T05:31:59;12.60;99.90
4687;DHT22;2357;47.316;-1.348;2022-11-14T05:34:25;12.60;99.90
4687;DHT22;2357;47.316;-1.348;2022-11-14T05:36:51;12.60;99.90
4687;DHT22;2357;47.316;-1.348;2022-11-14T05:39:17;12.60;99.90
4687;DHT22;2357;47.316;-1.348;2022-11-14T05:41:43;12.60;99.90
4687;DHT22;2357;47.316;-1.348;2022-11-14T05:44:09;12.60;99.90
4687;DHT22;2357;47.316;-1.348;2022-11-14T05:46:34;12.60;99.90
4687;DHT22;2357;47.316;-1.348;2022-11-14T05:49:00;12.60;99.90
4687;DHT22;2357;47.316;-1.348;2022-11-14T05:51:26;12.60;99.90
4687;DHT22;2357;47.316;-1.348;2022-11-14T05:53:51;12.50;99.90
4687;DHT22;2357;47.316;-1.348;2022-11-14T05:56:17;12.50;99.90
4687;DHT22;2357;47.316;-1.348;2022-11-14T05:58:43;12.50;99.90
4687;DHT22;2357;47.316;-1.348;2022-11-14T06:01:14;12.50;99.90
4687;DHT22;2357;47.316;-1.348;2022-11-14T06:03:42;12.50;99.90
4687;DHT22;2357;47.316;-1.348;2022-11-14T06:06:11;12.50;99.90
4687;DHT22;2357;47.316;-1.348;2022-11-14T06:08:37;12.50;99.90
4687;DHT22;2357;47.316;-1.348;2022-11-14T06:11:12;12.40;99.90
4687;DHT22;2357;47.316;-1.348;2022-11-14T06:13:38;12.40;99.90
4687;DHT22;2357;47.316;-1.348;2022-11-14T06:16:06;12.40;99.90
4687;DHT22;2357;47.316;-1.348;2022-11-14T06:18:34;12.40;99.90
4687;DHT22;2357;47.316;-1.348;2022-11-14T06:21:09;12.40;99.90
4687;DHT22;2357;47.316;-1.348;2022-11-14T06:23:35;12.40;99.90
4687;DHT22;2357;47.316;-1.348;2022-11-14T06:26:02;12.30;99.90
4687;DHT22;2357;47.316;-1.348;2022-11-14T06:28:28;12.40;99.90
4687;DHT22;2357;47.316;-1.348;2022-11-14T06:30:58;12.30;99.90
4687;DHT22;2357;47.316;-1.348;2022-11-14T06:33:24;12.40;99.90
4687;DHT22;2357;47.316;-1.348;2022-11-14T06:35:50;12.30;99.90
4687;DHT22;2357;47.316;-1.348;2022-11-14T06:38:16;12.30;99.90
4687;DHT22;2357;47.316;-1.348;2022-11-14T06:40:41;12.40;99.90
4687;DHT22;2357;47.316;-1.348;2022-11-14T06:43:07;12.40;99.90
4687;DHT22;2357;47.316;-1.348;2022-11-14T06:45:32;12.40;99.90
4687;DHT22;2357;47.316;-1.348;2022-11-14T06:47:58;12.40;99.90
4687;DHT22;2357;47.316;-1.348;2022-11-14T06:50:24;12.40;99.90
4687;DHT22;2357;47.316;-1.348;2022-11-14T06:52:50;12.40;99.90
4687;DHT22;2357;47.316;-1.348;2022-11-14T06:55:16;12.40;99.90
4687;DHT22;2357;47.316;-1.348;2022-11-14T06:57:41;12.40;99.90
4687;DHT22;2357;47.316;-1.348;2022-11-14T07:00:07;12.40;99.90
4687;DHT22;2357;47.316;-1.348;2022-11-14T07:02:33;12.40;99.90
4687;DHT22;2357;47.316;-1.348;2022-11-14T07:04:59;12.40;99.90
4687;DHT22;2357;47.316;-1.348;2022-11-14T07:07:24;12.40;99.90
4687;DHT22;2357;47.316;-1.348;2022-11-14T07:09:50;12.40;99.90
4687;DHT22;2357;47.316;-1.348;2022-11-14T07:12:15;12.40;99.90
4687;DHT22;2357;47.316;-1.348;2022-11-14T07:14:41;12.30;99.90
4687;DHT22;2357;47.316;-1.348;2022-11-14T07:17:07;12.30;99.90
4687;DHT22;2357;47.316;-1.348;2022-11-14T07:19:32;12.30;99.90
4687;DHT22;2357;47.316;-1.348;2022-11-14T07:21:58;12.40;99.90
4687;DHT22;2357;47.316;-1.348;2022-11-14T07:24:23;12.40;99.90
4687;DHT22;2357;47.316;-1.348;2022-11-14T07:26:49;12.40;99.90
4687;DHT22;2357;47.316;-1.348;2022-11-14T07:29:15;12.40;99.90
4687;DHT22;2357;47.316;-1.348;2022-11-14T07:31:40;12.40;99.90
4687;DHT22;2357;47.316;-1.348;2022-11-14T07:34:07;12.40;99.90
4687;DHT22;2357;47.316;-1.348;2022-11-14T07:36:33;12.40;99.90
4687;DHT22;2357;47.316;-1.348;2022-11-14T07:38:59;12.40;99.90
4687;DHT22;2357;47.316;-1.348;2022-11-14T07:41:24;12.50;99.90
4687;DHT22;2357;47.316;-1.348;2022-11-14T07:43:50;12.50;99.90
4687;DHT22;2357;47.316;-1.348;2022-11-14T07:46:17;12.50;99.90
4687;DHT22;2357;47.316;-1.348;2022-11-14T07:48:43;12.50;99.90
4687;DHT22;2357;47.316;-1.348;2022-11-14T07:51:14;12.50;99.90
4687;DHT22;2357;47.316;-1.348;2022-11-14T07:53:40;12.50;99.90
4687;DHT22;2357;47.316;-1.348;2022-11-14T07:56:07;12.50;99.90
4687;DHT22;2357;47.316;-1.348;2022-11-14T07:58:40;12.50;99.90
4687;DHT22;2357;47.316;-1.348;2022-11-14T08:01:06;12.50;99.90
4687;DHT22;2357;47.316;-1.348;2022-11-14T08:03:33;12.40;99.90
4687;DHT22;2357;47.316;-1.348;2022-11-14T08:06:00;12.50;99.90
4687;DHT22;2357;47.316;-1.348;2022-11-14T08:08:26;12.50;99.90
4687;DHT22;2357;47.316;-1.348;2022-11-14T08:10:55;12.60;99.90
4687;DHT22;2357;47.316;-1.348;2022-11-14T08:13:21;12.60;99.90
4687;DHT22;2357;47.316;-1.348;2022-11-14T08:15:46;12.60;99.90
4687;DHT22;2357;47.316;-1.348;2022-11-14T08:18:12;12.70;99.90
4687;DHT22;2357;47.316;-1.348;2022-11-14T08:20:37;12.60;99.90
4687;DHT22;2357;47.316;-1.348;2022-11-14T08:23:04;12.70;99.90
4687;DHT22;2357;47.316;-1.348;2022-11-14T08:25:31;12.70;99.90
4687;DHT22;2357;47.316;-1.348;2022-11-14T08:27:57;12.70;99.90
4687;DHT22;2357;47.316;-1.348;2022-11-14T08:30:22;12.70;99.90
4687;DHT22;2357;47.316;-1.348;2022-11-14T08:32:48;12.60;99.90
4687;DHT22;2357;47.316;-1.348;2022-11-14T08:35:14;12.70;99.90
4687;DHT22;2357;47.316;-1.348;2022-11-14T08:37:39;12.70;99.90
4687;DHT22;2357;47.316;-1.348;2022-11-14T08:40:05;12.60;99.90
4687;DHT22;2357;47.316;-1.348;2022-11-14T08:42:31;12.70;99.90
4687;DHT22;2357;47.316;-1.348;2022-11-14T08:44:56;12.70;99.90
4687;DHT22;2357;47.316;-1.348;2022-11-14T08:47:22;12.70;99.90
4687;DHT22;2357;47.316;-1.348;2022-11-14T08:49:48;12.70;99.90
4687;DHT22;2357;47.316;-1.348;2022-11-14T08:52:13;12.70;99.90
4687;DHT22;2357;47.316;-1.348;2022-11-14T08:54:39;12.70;99.90
4687;DHT22;2357;47.316;-1.348;2022-11-14T08:57:04;12.60;99.90
4687;DHT22;2357;47.316;-1.348;2022-11-14T08:59:31;12.70;99.90
4687;DHT22;2357;47.316;-1.348;2022-11-14T09:01:57;12.70;99.90
4687;DHT22;2357;47.316;-1.348;2022-11-14T09:04:22;12.70;99.90
4687;DHT22;2357;47.316;-1.348;2022-11-14T09:06:48;12.80;99.90
4687;DHT22;2357;47.316;-1.348;2022-11-14T09:09:14;12.80;99.90
4687;DHT22;2357;47.316;-1.348;2022-11-14T09:11:40;12.90;99.90
4687;DHT22;2357;47.316;-1.348;2022-11-14T09:14:06;12.90;99.90
4687;DHT22;2357;47.316;-1.348;2022-11-14T09:16:31;12.90;99.90
4687;DHT22;2357;47.316;-1.348;2022-11-14T09:18:58;13.00;99.90
4687;DHT22;2357;47.316;-1.348;2022-11-14T09:21:24;13.00;99.90
4687;DHT22;2357;47.316;-1.348;2022-11-14T09:23:49;13.10;99.90
4687;DHT22;2357;47.316;-1.348;2022-11-14T09:26:15;13.10;99.90
4687;DHT22;2357;47.316;-1.348;2022-11-14T09:28:43;13.10;99.90
4687;DHT22;2357;47.316;-1.348;2022-11-14T09:31:11;13.10;99.90
4687;DHT22;2357;47.316;-1.348;2022-11-14T09:33:37;13.10;99.90
4687;DHT22;2357;47.316;-1.348;2022-11-14T09:36:05;13.20;99.90
4687;DHT22;2357;47.316;-1.348;2022-11-14T09:38:31;13.20;99.90
4687;DHT22;2357;47.316;-1.348;2022-11-14T09:48:55;13.40;99.90
4687;DHT22;2357;47.316;-1.348;2022-11-14T09:51:26;13.40;99.90
4687;DHT22;2357;47.316;-1.348;2022-11-14T09:54:04;13.40;99.90
4687;DHT22;2357;47.316;-1.348;2022-11-14T09:56:31;13.40;99.90
4687;DHT22;2357;47.316;-1.348;2022-11-14T09:58:57;13.50;99.90
4687;DHT22;2357;47.316;-1.348;2022-11-14T10:14:44;13.50;99.90
4687;DHT22;2357;47.316;-1.348;2022-11-14T10:20:19;13.60;99.90
4687;DHT22;2357;47.316;-1.348;2022-11-14T10:23:04;13.60;99.90
4687;DHT22;2357;47.316;-1.348;2022-11-14T10:30:44;13.80;99.90
4687;DHT22;2357;47.316;-1.348;2022-11-14T10:33:22;13.90;99.90
4687;DHT22;2357;47.316;-1.348;2022-11-14T10:35:59;14.00;99.90
4687;DHT22;2357;47.316;-1.348;2022-11-14T10:38:37;14.00;99.90
4687;DHT22;2357;47.316;-1.348;2022-11-14T10:41:08;14.10;99.90
4687;DHT22;2357;47.316;-1.348;2022-11-14T10:48:45;14.00;99.90
4687;DHT22;2357;47.316;-1.348;2022-11-14T10:56:45;13.90;99.90
4687;DHT22;2357;47.316;-1.348;2022-11-14T10:59:11;14.00;99.90
4687;DHT22;2357;47.316;-1.348;2022-11-14T11:01:38;14.00;99.90
4687;DHT22;2357;47.316;-1.348;2022-11-14T11:04:12;14.10;99.90
4687;DHT22;2357;47.316;-1.348;2022-11-14T11:06:39;14.00;99.90
4687;DHT22;2357;47.316;-1.348;2022-11-14T11:09:12;14.00;99.90
4687;DHT22;2357;47.316;-1.348;2022-11-14T11:11:58;14.10;99.90
4687;DHT22;2357;47.316;-1.348;2022-11-14T11:14:26;14.00;99.90
4687;DHT22;2357;47.316;-1.348;2022-11-14T11:17:18;14.10;99.90
4687;DHT22;2357;47.316;-1.348;2022-11-14T11:19:46;14.20;99.90
4687;DHT22;2357;47.316;-1.348;2022-11-14T11:22:35;14.20;99.90
4687;DHT22;2357;47.316;-1.348;2022-11-14T11:25:03;14.40;99.90
4687;DHT22;2357;47.316;-1.348;2022-11-14T11:27:46;14.40;99.90
4687;DHT22;2357;47.316;-1.348;2022-11-14T11:30:20;14.40;99.90
4687;DHT22;2357;47.316;-1.348;2022-11-14T11:32:47;14.40;99.90
4687;DHT22;2357;47.316;-1.348;2022-11-14T11:35:15;14.30;99.90
4687;DHT22;2357;47.316;-1.348;2022-11-14T11:37:45;14.30;99.90
4687;DHT22;2357;47.316;-1.348;2022-11-14T11:40:23;14.30;99.90
4687;DHT22;2357;47.316;-1.348;2022-11-14T11:45:18;14.20;99.90
4687;DHT22;2357;47.316;-1.348;2022-11-14T11:50:34;13.90;99.90
4687;DHT22;2357;47.316;-1.348;2022-11-14T11:55:55;13.60;99.90
4687;DHT22;2357;47.316;-1.348;2022-11-14T11:58:28;13.60;99.90
4687;DHT22;2357;47.316;-1.348;2022-11-14T12:00:55;13.60;99.90
4687;DHT22;2357;47.316;-1.348;2022-11-14T12:03:23;13.60;99.90
4687;DHT22;2357;47.316;-1.348;2022-11-14T12:11:17;13.60;99.90
4687;DHT22;2357;47.316;-1.348;2022-11-14T12:24:49;13.90;99.90
4687;DHT22;2357;47.316;-1.348;2022-11-14T12:30:27;13.90;99.90
4687;DHT22;2357;47.316;-1.348;2022-11-14T12:35:24;13.60;99.90
4687;DHT22;2357;47.316;-1.348;2022-11-14T12:37:52;13.50;99.90
4687;DHT22;2357;47.316;-1.348;2022-11-14T12:40:28;13.50;99.90
4687;DHT22;2357;47.316;-1.348;2022-11-14T12:42:57;13.70;99.90
4687;DHT22;2357;47.316;-1.348;2022-11-14T12:50:51;13.90;99.90
4687;DHT22;2357;47.316;-1.348;2022-11-14T12:53:37;14.10;99.90
4687;DHT22;2357;47.316;-1.348;2022-11-14T12:59:25;14.30;99.90
4687;DHT22;2357;47.316;-1.348;2022-11-14T13:18:32;15.70;99.90
4687;DHT22;2357;47.316;-1.348;2022-11-14T13:21:19;16.30;99.90
4687;DHT22;2357;47.316;-1.348;2022-11-14T13:24:04;16.70;99.90
4687;DHT22;2357;47.316;-1.348;2022-11-14T13:28:55;17.80;99.90
4687;DHT22;2357;47.316;-1.348;2022-11-14T13:33:57;19.10;99.90
4687;DHT22;2357;47.316;-1.348;2022-11-14T13:39:39;19.00;99.90
4687;DHT22;2357;47.316;-1.348;2022-11-14T13:50:18;14.90;99.90
4687;DHT22;2357;47.316;-1.348;2022-11-14T13:52:49;14.60;99.90
4687;DHT22;2357;47.316;-1.348;2022-11-14T13:55:46;14.70;99.90
4687;DHT22;2357;47.316;-1.348;2022-11-14T13:58:26;16.50;99.90
4687;DHT22;2357;47.316;-1.348;2022-11-14T14:15:26;15.30;99.90
4687;DHT22;2357;47.316;-1.348;2022-11-14T14:20:46;14.80;99.90
4687;DHT22;2357;47.316;-1.348;2022-11-14T14:31:14;15.60;99.90
4687;DHT22;2357;47.316;-1.348;2022-11-14T14:33:46;15.50;99.90
4687;DHT22;2357;47.316;-1.348;2022-11-14T14:36:22;15.30;99.90
4687;DHT22;2357;47.316;-1.348;2022-11-14T14:38:50;15.20;99.90
4687;DHT22;2357;47.316;-1.348;2022-11-14T14:41:31;15.10;99.90
4687;DHT22;2357;47.316;-1.348;2022-11-14T14:43:58;14.70;99.90
4687;DHT22;2357;47.316;-1.348;2022-11-14T14:46:29;14.80;99.90
4687;DHT22;2357;47.316;-1.348;2022-11-14T14:48:56;14.60;99.90
4687;DHT22;2357;47.316;-1.348;2022-11-14T14:51:36;14.50;99.90
4687;DHT22;2357;47.316;-1.348;2022-11-14T14:54:03;14.30;99.90
4687;DHT22;2357;47.316;-1.348;2022-11-14T14:56:32;14.20;99.90
4687;DHT22;2357;47.316;-1.348;2022-11-14T14:58:57;14.50;99.90
4687;DHT22;2357;47.316;-1.348;2022-11-14T15:01:33;14.40;99.90
4687;DHT22;2357;47.316;-1.348;2022-11-14T15:06:36;14.60;99.90
4687;DHT22;2357;47.316;-1.348;2022-11-14T15:11:44;14.40;99.90
4687;DHT22;2357;47.316;-1.348;2022-11-14T15:14:16;14.20;99.90
4687;DHT22;2357;47.316;-1.348;2022-11-14T15:16:44;14.20;99.90
4687;DHT22;2357;47.316;-1.348;2022-11-14T15:19:12;14.10;99.90
4687;DHT22;2357;47.316;-1.348;2022-11-14T15:21:39;14.10;99.90
4687;DHT22;2357;47.316;-1.348;2022-11-14T15:24:20;14.10;99.90
4687;DHT22;2357;47.316;-1.348;2022-11-14T15:26:49;14.00;99.90
4687;DHT22;2357;47.316;-1.348;2022-11-14T15:29:21;13.90;99.90
4687;DHT22;2357;47.316;-1.348;2022-11-14T15:32:14;13.90;99.90
4687;DHT22;2357;47.316;-1.348;2022-11-14T15:34:41;13.80;99.90
4687;DHT22;2357;47.316;-1.348;2022-11-14T15:39:33;13.70;99.90
4687;DHT22;2357;47.316;-1.348;2022-11-14T15:42:37;13.60;99.90
4687;DHT22;2357;47.316;-1.348;2022-11-14T15:45:23;13.60;99.90
4687;DHT22;2357;47.316;-1.348;2022-11-14T15:47:57;13.40;99.90
4687;DHT22;2357;47.316;-1.348;2022-11-14T15:50:41;13.40;99.90
4687;DHT22;2357;47.316;-1.348;2022-11-14T15:53:23;13.40;99.90
4687;DHT22;2357;47.316;-1.348;2022-11-14T15:55:49;13.40;99.90
4687;DHT22;2357;47.316;-1.348;2022-11-14T15:58:15;13.40;99.90
4687;DHT22;2357;47.316;-1.348;2022-11-14T16:00:49;13.30;99.90
4687;DHT22;2357;47.316;-1.348;2022-11-14T16:03:20;13.10;99.90
4687;DHT22;2357;47.316;-1.348;2022-11-14T16:05:46;13.10;99.90
4687;DHT22;2357;47.316;-1.348;2022-11-14T16:08:12;13.00;99.90
4687;DHT22;2357;47.316;-1.348;2022-11-14T16:10:38;13.00;99.90
4687;DHT22;2357;47.316;-1.348;2022-11-14T16:13:04;13.00;99.90
4687;DHT22;2357;47.316;-1.348;2022-11-14T16:15:30;12.90;99.90
4687;DHT22;2357;47.316;-1.348;2022-11-14T16:17:55;13.00;99.90
4687;DHT22;2357;47.316;-1.348;2022-11-14T16:20:23;12.90;99.90
4687;DHT22;2357;47.316;-1.348;2022-11-14T16:22:50;12.80;99.90
4687;DHT22;2357;47.316;-1.348;2022-11-14T16:25:27;12.80;99.90
4687;DHT22;2357;47.316;-1.348;2022-11-14T16:27:53;12.70;99.90
4687;DHT22;2357;47.316;-1.348;2022-11-14T16:30:20;12.70;99.90
4687;DHT22;2357;47.316;-1.348;2022-11-14T16:32:48;12.50;99.90
4687;DHT22;2357;47.316;-1.348;2022-11-14T16:35:16;12.50;99.90
4687;DHT22;2357;47.316;-1.348;2022-11-14T16:37:42;12.50;99.90
4687;DHT22;2357;47.316;-1.348;2022-11-14T16:40:23;12.50;99.90
4687;DHT22;2357;47.316;-1.348;2022-11-14T16:42:53;12.40;99.90
4687;DHT22;2357;47.316;-1.348;2022-11-14T16:45:19;12.50;99.90
4687;DHT22;2357;47.316;-1.348;2022-11-14T16:47:45;12.50;99.90
4687;DHT22;2357;47.316;-1.348;2022-11-14T16:50:11;12.50;99.90
4687;DHT22;2357;47.316;-1.348;2022-11-14T16:52:37;12.40;99.90
4687;DHT22;2357;47.316;-1.348;2022-11-14T16:55:06;12.40;99.90
4687;DHT22;2357;47.316;-1.348;2022-11-14T16:57:32;12.40;99.90
4687;DHT22;2357;47.316;-1.348;2022-11-14T16:59:58;12.40;99.90
4687;DHT22;2357;47.316;-1.348;2022-11-14T17:02:24;12.40;99.90
4687;DHT22;2357;47.316;-1.348;2022-11-14T17:04:50;12.30;99.90
4687;DHT22;2357;47.316;-1.348;2022-11-14T17:07:16;12.30;99.90
4687;DHT22;2357;47.316;-1.348;2022-11-14T17:09:42;12.30;99.90
4687;DHT22;2357;47.316;-1.348;2022-11-14T17:12:07;12.30;99.90
4687;DHT22;2357;47.316;-1.348;2022-11-14T17:14:33;12.30;99.90
4687;DHT22;2357;47.316;-1.348;2022-11-14T17:16:59;12.20;99.90
4687;DHT22;2357;47.316;-1.348;2022-11-14T17:19:25;12.30;99.90
4687;DHT22;2357;47.316;-1.348;2022-11-14T17:21:50;12.20;99.90
4687;DHT22;2357;47.316;-1.348;2022-11-14T17:24:16;12.20;99.90
4687;DHT22;2357;47.316;-1.348;2022-11-14T17:26:42;12.30;99.90
4687;DHT22;2357;47.316;-1.348;2022-11-14T17:29:08;12.30;99.90
4687;DHT22;2357;47.316;-1.348;2022-11-14T17:31:34;12.20;99.90
4687;DHT22;2357;47.316;-1.348;2022-11-14T17:34:00;12.20;99.90
4687;DHT22;2357;47.316;-1.348;2022-11-14T17:36:27;12.30;99.90
4687;DHT22;2357;47.316;-1.348;2022-11-14T17:38:54;12.30;99.90
4687;DHT22;2357;47.316;-1.348;2022-11-14T17:41:20;12.20;99.90
4687;DHT22;2357;47.316;-1.348;2022-11-14T17:43:46;12.20;99.90
4687;DHT22;2357;47.316;-1.348;2022-11-14T17:46:12;12.10;99.90
4687;DHT22;2357;47.316;-1.348;2022-11-14T17:48:38;12.10;99.90
4687;DHT22;2357;47.316;-1.348;2022-11-14T17:51:06;12.10;99.90
4687;DHT22;2357;47.316;-1.348;2022-11-14T17:53:32;12.10;99.90
4687;DHT22;2357;47.316;-1.348;2022-11-14T17:55:58;12.00;99.90
4687;DHT22;2357;47.316;-1.348;2022-11-14T17:58:26;12.10;99.90
4687;DHT22;2357;47.316;-1.348;2022-11-14T18:00:52;12.10;99.90
4687;DHT22;2357;47.316;-1.348;2022-11-14T18:03:18;12.10;99.90
4687;DHT22;2357;47.316;-1.348;2022-11-14T18:05:44;12.10;99.90
4687;DHT22;2357;47.316;-1.348;2022-11-14T18:08:10;12.10;99.90
4687;DHT22;2357;47.316;-1.348;2022-11-14T18:10:36;12.10;99.90
4687;DHT22;2357;47.316;-1.348;2022-11-14T18:13:01;12.10;99.90
4687;DHT22;2357;47.316;-1.348;2022-11-14T18:15:30;12.00;99.90